createdAt,value
2023-02-14T00:02:24.271Z,71.25
2023-02-14T00:04:50.817Z,72.68
2023-02-14T00:07:17.287Z,74.63
2023-02-14T00:09:43.730Z,76.63
2023-02-14T00:12:10.209Z,83.38
2023-02-14T00:14:55.023Z,77.97
2023-02-14T00:17:21.469Z,72.75
2023-02-14T00:19:47.888Z,72.53
2023-02-14T00:22:14.332Z,82.72
2023-02-14T00:24:40.715Z,73.07
2023-02-14T00:27:07.142Z,83.20
2023-02-14T00:29:34.456Z,74.22
2023-02-14T00:32:01.446Z,90.38
2023-02-14T00:34:28.203Z,85.40
2023-02-14T00:36:54.723Z,73.25
2023-02-14T00:39:21.165Z,90.60
2023-02-14T00:41:47.659Z,79.35
2023-02-14T00:44:14.407Z,89.30
2023-02-14T00:46:41.754Z,78.15
2023-02-14T00:49:08.468Z,74.30
2023-02-14T00:51:34.982Z,77.10
2023-02-14T00:54:01.941Z,76.82
2023-02-14T00:56:28.356Z,82.32
2023-02-14T00:58:55.001Z,76.32
2023-02-14T01:01:21.791Z,85.32
2023-02-14T01:03:48.573Z,83.32
2023-02-14T01:06:15.317Z,78.50
2023-02-14T01:08:41.914Z,69.57
2023-02-14T01:11:16.935Z,76.78
2023-02-14T01:13:44.191Z,76.63
2023-02-14T01:16:14.034Z,71.38
2023-02-14T01:18:41.192Z,79.28
2023-02-14T01:21:21.587Z,74.22
2023-02-14T01:23:50.031Z,76.55
2023-02-14T01:26:17.448Z,76.03
2023-02-14T01:28:44.764Z,73.82
2023-02-14T01:31:19.892Z,76.72
2023-02-14T01:33:48.075Z,80.57
2023-02-14T01:36:16.422Z,84.13
2023-02-14T01:38:43.082Z,73.53
2023-02-14T01:41:09.730Z,79.65
2023-02-14T01:44:02.288Z,76.72
2023-02-14T01:46:31.376Z,56.03
2023-02-14T01:49:05.497Z,83.25
2023-02-14T01:51:34.446Z,88.97
2023-02-14T01:54:02.051Z,76.65
2023-02-14T01:56:37.538Z,85.03
2023-02-14T01:59:09.723Z,82.88
2023-02-14T02:01:36.375Z,86.35
2023-02-14T02:04:10.082Z,76.00
2023-02-14T02:06:43.969Z,76.37
2023-02-14T02:09:16.304Z,88.28
2023-02-14T02:11:43.119Z,80.32
2023-02-14T02:14:14.889Z,77.13
2023-02-14T02:16:41.236Z,80.72
2023-02-14T02:19:13.438Z,83.90
2023-02-14T02:21:58.175Z,76.78
2023-02-14T02:24:30.405Z,73.32
2023-02-14T02:27:18.667Z,69.82
2023-02-14T02:29:58.882Z,77.07
2023-02-14T02:32:27.919Z,67.40
2023-02-14T02:35:05.599Z,73.50
2023-02-14T02:38:09.782Z,66.28
2023-02-14T02:40:42.744Z,66.68
2023-02-14T02:43:29.268Z,66.10
2023-02-14T02:46:27.368Z,71.38
2023-02-14T02:48:59.650Z,64.78
2023-02-14T02:52:10.011Z,69.43
2023-02-14T02:54:44.689Z,72.60
2023-02-14T02:57:23.630Z,66.25
2023-02-14T02:59:52.759Z,64.13
2023-02-14T03:02:31.696Z,71.85
2023-02-14T03:05:01.834Z,71.05
2023-02-14T03:07:40.586Z,68.97
2023-02-14T03:10:12.798Z,68.53
2023-02-14T03:12:51.318Z,69.63
2023-02-14T03:15:47.753Z,73.47
2023-02-14T03:18:48.072Z,57.85
2023-02-14T03:21:42.112Z,73.53
2023-02-14T03:24:24.828Z,73.93
2023-02-14T03:27:14.994Z,72.15
2023-02-14T03:30:02.567Z,69.32
2023-02-14T03:33:04.418Z,63.55
2023-02-14T03:35:50.676Z,68.35
2023-02-14T03:38:30.993Z,77.00
2023-02-14T03:41:02.720Z,61.90
2023-02-14T03:43:37.185Z,70.20
2023-02-14T03:46:10.560Z,63.92
2023-02-14T03:48:40.073Z,53.10
2023-02-14T03:51:10.808Z,61.22
2023-02-14T03:53:43.699Z,63.05
2023-02-14T03:56:26.338Z,79.93
2023-02-14T03:58:58.311Z,134.18
2023-02-14T04:01:31.012Z,69.32
2023-02-14T04:03:59.545Z,55.20
2023-02-14T04:06:26.292Z,100.57
2023-02-14T04:08:52.688Z,108.75
2023-02-14T04:11:19.246Z,62.80
2023-02-14T04:13:45.756Z,72.70
2023-02-14T04:16:12.191Z,74.45
2023-02-14T04:18:57.359Z,54.88
2023-02-14T04:21:23.812Z,35.15
2023-02-14T04:23:50.213Z,79.85
2023-02-14T04:26:16.628Z,65.47
2023-02-14T04:28:43.034Z,95.20
2023-02-14T04:31:11.400Z,66.03
2023-02-14T04:33:39.293Z,98.72
2023-02-14T04:36:06.072Z,70.32
2023-02-14T04:38:32.921Z,106.10
2023-02-14T04:40:59.681Z,97.00
2023-02-14T04:43:26.235Z,116.22
2023-02-14T04:45:52.679Z,83.57
2023-02-14T04:48:19.117Z,88.70
2023-02-14T04:50:45.511Z,49.30
2023-02-14T04:53:11.944Z,65.43
2023-02-14T04:55:38.334Z,111.88
2023-02-14T04:58:04.939Z,58.33
2023-02-14T05:00:31.407Z,104.25
2023-02-14T05:02:57.881Z,93.65
2023-02-14T05:05:24.304Z,67.03
2023-02-14T05:07:50.696Z,97.57
2023-02-14T05:10:17.165Z,115.15
2023-02-14T05:12:43.629Z,77.63
2023-02-14T05:15:10.108Z,138.13
2023-02-14T05:17:37.188Z,58.22
2023-02-14T05:20:05.942Z,41.80
2023-02-14T05:22:32.345Z,100.30
2023-02-14T05:24:58.735Z,103.22
2023-02-14T05:27:25.128Z,97.90
2023-02-14T05:29:51.540Z,124.63
2023-02-14T05:32:17.987Z,130.88
2023-02-14T05:34:44.423Z,118.97
2023-02-14T05:37:10.903Z,44.40
2023-02-14T05:39:37.343Z,82.93
2023-02-14T05:42:03.783Z,107.10
2023-02-14T05:44:30.185Z,160.70
2023-02-14T05:46:56.658Z,109.72
2023-02-14T05:49:23.114Z,143.88
2023-02-14T05:51:49.816Z,126.90
2023-02-14T05:54:16.263Z,79.95
2023-02-14T05:56:42.688Z,99.90
2023-02-14T05:59:09.102Z,95.75
2023-02-14T06:01:35.501Z,67.40
2023-02-14T06:04:01.935Z,59.13
2023-02-14T06:06:28.369Z,57.22
2023-02-14T06:08:54.708Z,59.75
2023-02-14T06:11:21.091Z,82.38
2023-02-14T06:13:47.568Z,61.88
2023-02-14T06:16:14.031Z,46.10
2023-02-14T06:18:40.458Z,43.70
2023-02-14T06:21:06.855Z,51.63
2023-02-14T06:23:33.351Z,88.70
2023-02-14T06:25:59.735Z,56.47
2023-02-14T06:28:26.165Z,36.35
2023-02-14T06:30:52.767Z,51.03
2023-02-14T06:33:19.330Z,25.92
2023-02-14T06:35:45.698Z,39.38
2023-02-14T06:38:12.055Z,43.28
2023-02-14T06:40:38.433Z,30.95
2023-02-14T06:43:04.883Z,37.85
2023-02-14T06:45:31.302Z,26.58
2023-02-14T06:47:57.764Z,37.72
2023-02-14T06:50:24.280Z,29.25
2023-02-14T06:52:51.400Z,22.05
2023-02-14T06:55:18.255Z,42.47
2023-02-14T06:57:44.698Z,79.45
2023-02-14T07:00:11.794Z,70.82
2023-02-14T07:02:38.316Z,44.65
2023-02-14T07:05:05.110Z,64.20
2023-02-14T07:07:31.507Z,44.92
2023-02-14T07:09:57.988Z,40.65
2023-02-14T07:12:24.372Z,39.13
2023-02-14T07:14:50.810Z,53.17
2023-02-14T07:17:17.212Z,58.58
2023-02-14T07:19:43.592Z,64.78
2023-02-14T07:22:10.049Z,69.30
2023-02-14T07:24:36.414Z,60.05
2023-02-14T07:27:02.837Z,38.17
2023-02-14T07:29:29.234Z,38.97
2023-02-14T07:31:55.773Z,41.13
2023-02-14T07:34:22.513Z,58.95
2023-02-14T07:36:48.917Z,52.30
2023-02-14T07:39:15.360Z,46.80
2023-02-14T07:41:41.810Z,54.90
2023-02-14T07:44:08.285Z,81.45
2023-02-14T07:46:34.686Z,72.13
2023-02-14T07:49:01.085Z,51.22
2023-02-14T07:51:27.518Z,54.58
2023-02-14T07:53:54.106Z,48.33
2023-02-14T07:56:20.532Z,56.90
2023-02-14T07:58:47.088Z,53.30
2023-02-14T08:01:13.659Z,48.30
2023-02-14T08:03:40.123Z,44.40
2023-02-14T08:06:06.743Z,51.70
2023-02-14T08:08:33.297Z,49.97
2023-02-14T08:11:00.188Z,41.15
2023-02-14T08:13:27.105Z,41.50
2023-02-14T08:16:05.640Z,44.05
2023-02-14T08:18:35.144Z,42.67
2023-02-14T08:21:02.332Z,41.45
2023-02-14T08:23:29.276Z,43.22
2023-02-14T08:25:55.880Z,46.08
2023-02-14T08:28:22.471Z,41.17
2023-02-14T08:30:49.243Z,45.05
2023-02-14T08:33:15.697Z,48.03
2023-02-14T08:35:42.123Z,42.38
2023-02-14T08:38:08.648Z,41.70
2023-02-14T08:40:37.067Z,41.03
2023-02-14T08:43:04.999Z,35.05
2023-02-14T08:45:31.515Z,37.28
2023-02-14T08:48:07.228Z,41.80
2023-02-14T08:50:35.011Z,39.67
2023-02-14T08:53:01.800Z,35.85
2023-02-14T08:55:28.246Z,39.30
2023-02-14T08:57:57.064Z,42.38
2023-02-14T09:00:23.770Z,38.60
2023-02-14T09:02:51.757Z,44.67
2023-02-14T09:05:19.494Z,40.30
2023-02-14T09:07:45.985Z,43.17
2023-02-14T09:10:12.944Z,44.33
2023-02-14T09:12:40.845Z,44.20
2023-02-14T09:15:09.377Z,45.28
2023-02-14T09:17:36.586Z,42.30
2023-02-14T09:20:04.365Z,45.05
2023-02-14T09:22:30.855Z,40.63
2023-02-14T09:24:57.318Z,39.92
2023-02-14T09:27:23.782Z,37.97
2023-02-14T09:29:50.287Z,40.70
2023-02-14T09:32:16.871Z,45.03
2023-02-14T09:34:43.772Z,39.70
2023-02-14T09:37:30.478Z,47.63
2023-02-14T09:39:56.967Z,47.45
2023-02-14T09:42:50.734Z,42.30
2023-02-14T09:45:21.310Z,36.45
2023-02-14T09:48:06.660Z,40.42
2023-02-14T09:50:40.339Z,46.72
2023-02-14T09:53:15.379Z,44.38
2023-02-14T09:56:11.935Z,44.20
2023-02-14T09:59:04.004Z,34.83
2023-02-14T10:01:41.050Z,42.55
2023-02-14T10:04:07.549Z,42.42
2023-02-14T10:06:58.619Z,39.95
2023-02-14T10:09:50.937Z,38.85
2023-02-14T10:12:26.481Z,42.13
2023-02-14T10:14:57.480Z,45.20
2023-02-14T10:17:29.088Z,49.75
2023-02-14T10:20:01.753Z,44.22
2023-02-14T10:22:44.886Z,48.80
2023-02-14T10:25:28.992Z,55.08
2023-02-14T10:27:58.093Z,51.65
2023-02-14T10:30:25.896Z,51.50
2023-02-14T10:33:17.673Z,45.28
2023-02-14T10:35:48.668Z,41.70
2023-02-14T10:38:25.404Z,42.55
2023-02-14T10:41:09.998Z,42.00
2023-02-14T10:44:01.075Z,43.75
2023-02-14T10:46:42.937Z,48.78
2023-02-14T10:49:34.100Z,46.70
2023-02-14T10:52:04.255Z,44.88
2023-02-14T10:54:39.646Z,49.22
2023-02-14T10:57:17.419Z,40.45
2023-02-14T10:59:59.603Z,39.40
2023-02-14T11:02:33.468Z,43.25
2023-02-14T11:05:02.259Z,43.17
2023-02-14T11:07:29.662Z,37.50
2023-02-14T11:09:57.236Z,42.05
2023-02-14T11:12:40.827Z,45.78
2023-02-14T11:15:24.659Z,37.63
2023-02-14T11:18:09.213Z,44.37
2023-02-14T11:20:35.657Z,37.50
2023-02-14T11:23:02.090Z,40.33
2023-02-14T11:25:31.285Z,42.00
2023-02-14T11:28:07.916Z,46.17
2023-02-14T11:30:40.842Z,40.88
2023-02-14T11:33:34.217Z,46.03
2023-02-14T11:36:03.961Z,42.25
2023-02-14T11:38:38.193Z,41.40
2023-02-14T11:41:07.391Z,38.83
2023-02-14T11:43:39.299Z,36.00
2023-02-14T11:46:07.635Z,36.28
2023-02-14T11:48:38.866Z,40.95
2023-02-14T11:51:15.755Z,39.65
2023-02-14T11:53:52.330Z,35.63
2023-02-14T11:56:20.873Z,43.78
2023-02-14T11:58:59.502Z,46.72
2023-02-14T12:01:31.688Z,40.63
2023-02-14T12:04:23.508Z,41.58
2023-02-14T12:06:50.220Z,37.83
2023-02-14T12:09:22.692Z,41.60
2023-02-14T12:12:04.445Z,40.00
2023-02-14T12:14:35.632Z,38.28
2023-02-14T12:17:18.832Z,39.03
2023-02-14T12:20:23.622Z,31.13
2023-02-14T12:22:58.134Z,33.53
2023-02-14T12:25:27.333Z,36.35
2023-02-14T12:28:01.469Z,29.92
2023-02-14T12:30:32.258Z,28.10
2023-02-14T12:33:00.155Z,29.80
2023-02-14T12:36:01.986Z,30.75
2023-02-14T12:38:45.529Z,28.65
2023-02-14T12:41:17.806Z,34.00
2023-02-14T12:43:55.322Z,28.63
2023-02-14T12:46:51.768Z,28.92
2023-02-14T12:49:55.200Z,23.83
2023-02-14T12:52:24.489Z,27.92
2023-02-14T12:55:15.036Z,21.35
2023-02-14T12:58:05.634Z,26.35
2023-02-14T13:00:38.036Z,27.75
2023-02-14T13:03:33.622Z,29.30
2023-02-14T13:06:24.410Z,31.65
2023-02-14T13:09:18.050Z,23.75
2023-02-14T13:11:50.445Z,26.92
2023-02-14T13:14:25.797Z,23.17
2023-02-14T13:16:58.014Z,25.48
2023-02-14T13:19:50.451Z,25.17
2023-02-14T13:22:20.408Z,25.63
2023-02-14T13:24:50.669Z,27.60
2023-02-14T13:27:23.393Z,19.42
2023-02-14T13:30:16.295Z,26.00
2023-02-14T13:32:46.834Z,26.02
2023-02-14T13:35:17.068Z,24.02
2023-02-14T13:38:00.298Z,19.50
2023-02-14T13:40:28.480Z,21.17
2023-02-14T13:43:00.143Z,21.05
2023-02-14T13:45:29.626Z,24.73
2023-02-14T13:48:17.956Z,23.17
2023-02-14T13:50:50.142Z,23.60
2023-02-14T13:53:40.152Z,27.15
2023-02-14T13:56:12.446Z,23.70
2023-02-14T13:58:53.912Z,27.15
2023-02-14T14:01:31.548Z,27.75
2023-02-14T14:04:01.359Z,25.23
2023-02-14T14:06:28.277Z,27.20
2023-02-14T14:08:56.967Z,30.60
2023-02-14T14:11:23.300Z,27.70
2023-02-14T14:13:56.324Z,32.67
2023-02-14T14:16:28.860Z,29.95
2023-02-14T14:18:56.867Z,26.90
2023-02-14T14:21:32.421Z,26.25
2023-02-14T14:24:23.661Z,27.88
2023-02-14T14:27:16.810Z,24.05
2023-02-14T14:29:54.029Z,27.08
2023-02-14T14:32:41.472Z,32.90
2023-02-14T14:35:10.949Z,27.27
2023-02-14T14:37:56.587Z,24.73
2023-02-14T14:40:29.582Z,27.65
2023-02-14T14:43:09.867Z,21.55
2023-02-14T14:45:36.387Z,37.05
2023-02-14T14:48:09.461Z,35.42
2023-02-14T14:50:36.676Z,28.58
2023-02-14T14:53:29.262Z,31.98
2023-02-14T14:55:56.455Z,37.08
2023-02-14T14:58:31.971Z,30.23
2023-02-14T15:00:58.412Z,28.70
2023-02-14T15:03:27.210Z,40.67
2023-02-14T15:06:16.224Z,36.05
2023-02-14T15:08:43.223Z,31.45
2023-02-14T15:11:39.772Z,32.15
2023-02-14T15:14:10.216Z,36.50
2023-02-14T15:16:49.520Z,28.92
2023-02-14T15:19:33.278Z,33.65
2023-02-14T15:22:17.403Z,34.90
2023-02-14T15:24:44.462Z,39.53
2023-02-14T15:27:20.599Z,44.30
2023-02-14T15:29:57.920Z,38.40
2023-02-14T15:32:27.689Z,45.45
2023-02-14T15:34:54.573Z,48.90
2023-02-14T15:37:22.558Z,40.22
2023-02-14T15:39:53.023Z,44.95
2023-02-14T15:42:22.569Z,53.05
2023-02-14T15:44:49.000Z,42.95
2023-02-14T15:47:16.259Z,49.38
2023-02-14T15:49:46.452Z,45.90
2023-02-14T15:52:14.888Z,53.15
2023-02-14T15:54:47.347Z,47.10
2023-02-14T15:57:26.183Z,53.35
2023-02-14T15:59:53.598Z,48.20
2023-02-14T16:02:38.873Z,49.47
2023-02-14T16:05:21.223Z,50.45
2023-02-14T16:08:07.962Z,48.25
2023-02-14T16:10:40.181Z,46.95
2023-02-14T16:13:19.251Z,43.60
2023-02-14T16:16:03.977Z,43.72
2023-02-14T16:18:36.713Z,43.60
2023-02-14T16:21:26.751Z,44.67
2023-02-14T16:24:11.390Z,44.85
2023-02-14T16:26:40.098Z,43.33
2023-02-14T16:29:16.140Z,45.00
2023-02-14T16:32:06.198Z,40.10
2023-02-14T16:34:32.092Z,39.70
2023-02-14T16:36:58.536Z,47.67
2023-02-14T16:39:26.208Z,40.22
2023-02-14T16:41:56.121Z,49.28
2023-02-14T16:44:22.637Z,45.05
2023-02-14T16:46:49.119Z,50.55
2023-02-14T16:49:15.513Z,44.03
2023-02-14T16:51:45.242Z,39.67
2023-02-14T16:54:17.767Z,42.45
2023-02-14T16:56:52.672Z,67.22
2023-02-14T16:59:19.327Z,45.10
2023-02-14T17:01:45.797Z,40.85
2023-02-14T17:04:12.546Z,43.75
2023-02-14T17:06:41.978Z,44.95
2023-02-14T17:09:12.392Z,41.67
2023-02-14T17:11:43.676Z,45.33
2023-02-14T17:14:14.506Z,44.63
2023-02-14T17:16:41.902Z,44.47
2023-02-14T17:19:08.612Z,44.53
2023-02-14T17:21:35.507Z,45.15
2023-02-14T17:24:03.457Z,41.25
2023-02-14T17:26:30.070Z,44.05
2023-02-14T17:28:56.488Z,43.00
2023-02-14T17:31:22.939Z,45.70
2023-02-14T17:33:49.392Z,47.50
2023-02-14T17:36:16.276Z,45.60
2023-02-14T17:38:45.631Z,52.60
2023-02-14T17:41:14.948Z,47.47
2023-02-14T17:43:41.357Z,50.38
2023-02-14T17:46:08.025Z,53.58
2023-02-14T17:48:34.738Z,47.05
2023-02-14T17:51:06.423Z,46.65
2023-02-14T17:53:34.059Z,47.90
2023-02-14T17:56:06.782Z,50.35
2023-02-14T17:58:33.217Z,51.63
2023-02-14T18:01:11.428Z,51.90
2023-02-14T18:03:38.948Z,52.35
2023-02-14T18:06:06.730Z,50.58
2023-02-14T18:08:39.900Z,49.00
2023-02-14T18:11:08.085Z,48.17
2023-02-14T18:13:35.322Z,54.50
2023-02-14T18:16:06.965Z,53.85
2023-02-14T18:18:33.645Z,53.80
2023-02-14T18:21:02.325Z,76.47
2023-02-14T18:23:30.761Z,72.03
2023-02-14T18:26:01.028Z,57.67
2023-02-14T18:28:28.250Z,66.50
2023-02-14T18:30:54.705Z,59.17
2023-02-14T18:33:21.385Z,62.55
2023-02-14T18:35:47.807Z,61.67
2023-02-14T18:38:14.295Z,54.35
2023-02-14T18:40:41.404Z,61.88
2023-02-14T18:43:07.820Z,60.45
2023-02-14T18:45:38.719Z,54.65
2023-02-14T18:48:05.948Z,54.03
2023-02-14T18:50:33.618Z,55.63
2023-02-14T18:53:00.198Z,62.42
2023-02-14T18:55:27.370Z,59.17
2023-02-14T18:57:53.801Z,56.72
2023-02-14T19:00:21.769Z,55.00
2023-02-14T19:02:48.240Z,54.28
2023-02-14T19:05:14.642Z,44.70
2023-02-14T19:07:41.144Z,52.58
2023-02-14T19:10:08.252Z,50.17
2023-02-14T19:12:35.098Z,53.15
2023-02-14T19:15:03.204Z,51.10
2023-02-14T19:17:29.664Z,50.38
2023-02-14T19:19:56.469Z,51.88
2023-02-14T19:22:22.931Z,50.97
2023-02-14T19:24:52.990Z,54.58
2023-02-14T19:27:19.650Z,53.05
2023-02-14T19:29:46.035Z,55.20
2023-02-14T19:32:12.465Z,54.92
2023-02-14T19:34:39.073Z,51.70
2023-02-14T19:37:06.347Z,49.95
2023-02-14T19:39:32.945Z,53.67
2023-02-14T19:42:00.088Z,53.47
2023-02-14T19:44:26.615Z,48.00
2023-02-14T19:46:54.345Z,58.05
2023-02-14T19:49:21.083Z,49.70
2023-02-14T19:51:48.763Z,52.55
2023-02-14T19:54:15.729Z,50.22
2023-02-14T19:56:44.573Z,55.80
2023-02-14T19:59:14.282Z,58.72
2023-02-14T20:01:54.467Z,54.17
2023-02-14T20:04:30.791Z,51.30
2023-02-14T20:06:57.853Z,48.35
2023-02-14T20:09:25.460Z,50.15
2023-02-14T20:11:54.686Z,52.03
2023-02-14T20:14:49.864Z,55.92
2023-02-14T20:17:17.929Z,49.05
2023-02-14T20:19:44.281Z,58.22
2023-02-14T20:22:10.732Z,60.85
2023-02-14T20:24:37.160Z,78.05
2023-02-14T20:27:03.683Z,76.75
2023-02-14T20:29:30.194Z,107.57
2023-02-14T20:31:59.770Z,126.18
2023-02-14T20:34:26.923Z,82.35
2023-02-14T20:36:55.207Z,77.53
2023-02-14T20:39:23.620Z,125.30
2023-02-14T20:41:50.261Z,117.00
2023-02-14T20:44:21.209Z,97.80
2023-02-14T20:46:53.623Z,79.32
2023-02-14T20:49:25.036Z,120.07
2023-02-14T20:51:52.125Z,76.85
2023-02-14T20:54:20.492Z,111.65
2023-02-14T20:56:47.400Z,132.88
2023-02-14T20:59:14.595Z,90.28
2023-02-14T21:01:41.178Z,148.52
2023-02-14T21:04:07.642Z,124.85
2023-02-14T21:06:35.493Z,90.50
2023-02-14T21:09:02.005Z,92.15
2023-02-14T21:11:29.085Z,67.18
2023-02-14T21:13:59.699Z,58.47
2023-02-14T21:16:28.227Z,72.60
2023-02-14T21:18:58.931Z,123.30
2023-02-14T21:21:36.028Z,74.75
2023-02-14T21:24:11.833Z,59.17
2023-02-14T21:26:39.118Z,60.65
2023-02-14T21:29:06.401Z,82.13
2023-02-14T21:31:33.722Z,73.43
2023-02-14T21:34:01.913Z,71.97
2023-02-14T21:36:30.905Z,114.53
2023-02-14T21:38:59.120Z,88.32
2023-02-14T21:41:30.201Z,121.38
2023-02-14T21:43:58.335Z,87.53
2023-02-14T21:46:29.244Z,66.80
2023-02-14T21:49:15.649Z,69.05
2023-02-14T21:51:42.700Z,80.75
2023-02-14T21:54:09.961Z,166.70
2023-02-14T21:56:37.307Z,49.80
2023-02-14T21:59:03.780Z,162.18
2023-02-14T22:01:35.294Z,101.40
2023-02-14T22:04:04.511Z,55.88
2023-02-14T22:06:30.924Z,91.43
2023-02-14T22:08:58.900Z,104.13
2023-02-14T22:11:27.387Z,90.30
2023-02-14T22:13:53.996Z,107.68
2023-02-14T22:16:22.080Z,61.88
2023-02-14T22:18:49.099Z,89.35
2023-02-14T22:21:18.148Z,119.68
2023-02-14T22:23:45.029Z,65.57
2023-02-14T22:26:33.790Z,74.53
2023-02-14T22:29:02.592Z,84.28
2023-02-14T22:31:33.674Z,109.18
2023-02-14T22:34:00.140Z,76.03
2023-02-14T22:36:26.655Z,75.15
2023-02-14T22:38:53.065Z,77.65
2023-02-14T22:41:22.753Z,70.05
2023-02-14T22:43:49.317Z,48.50
2023-02-14T22:46:24.512Z,110.35
2023-02-14T22:48:52.509Z,88.35
2023-02-14T22:51:25.270Z,120.60
2023-02-14T22:53:53.792Z,77.65
2023-02-14T22:56:23.339Z,111.97
2023-02-14T22:58:57.516Z,73.20
2023-02-14T23:01:24.317Z,48.47
2023-02-14T23:03:59.060Z,70.55
2023-02-14T23:06:27.544Z,49.78
2023-02-14T23:08:55.137Z,45.47
2023-02-14T23:11:30.612Z,103.63
2023-02-14T23:14:16.212Z,62.25
2023-02-14T23:17:01.651Z,61.08
2023-02-14T23:19:48.954Z,51.83
2023-02-14T23:22:19.442Z,66.38
2023-02-14T23:24:47.258Z,108.38
2023-02-14T23:27:14.295Z,71.72
2023-02-14T23:29:40.715Z,62.03
2023-02-14T23:32:07.791Z,59.13
2023-02-14T23:34:38.462Z,82.85
2023-02-14T23:37:05.661Z,60.55
2023-02-14T23:39:35.603Z,76.68
2023-02-14T23:42:07.024Z,59.70
2023-02-14T23:44:33.811Z,59.67
2023-02-14T23:47:04.151Z,56.60
2023-02-14T23:49:32.567Z,90.35
2023-02-14T23:51:59.216Z,69.28
2023-02-14T23:54:26.217Z,72.00
2023-02-14T23:56:53.940Z,80.15
2023-02-14T23:59:21.965Z,69.93
